Impacts TAF Board
For situational awareness. Not to be used for flight planning purposes.
IDs:

KSFO - San Francisco Intl, CA, US

Issued at 0520 UTC 23 Feb 2019
Updated at 0623 UTC 23 Feb 2019
Potential Impact None Slight Moderate High
Time0556Z 23/07Z 23/08Z 23/09Z 23/10Z 23/11Z 23/12Z 23/13Z 23/14Z 23/15Z 23/16Z 23/17Z 23/18Z 23/19Z>>
Type OBS PRVL PRVL PRVL PRVL PRVL PRVL PRVL PRVL PRVL PRVL PRVL PRVL PRVL
VIS 10 >6 >6 >6 >6 >6 >6 >6 >6 >6 >6 >6 >6 >6
CIG -- -- -- -- -- -- -- -- -- -- -- -- -- --
Cover CLR SKC SKC SKC SKC SKC SKC SKC SKC SKC SKC SKC SKC SKC
FltCat VFR VFR VFR VFR VFR VFR VFR VFR VFR VFR VFR VFR VFR VFR
WX -- -- -- -- -- -- -- -- -- -- -- -- -- --
WDir 280 340 340 340 340 40 40 40 40 40 40 40 40 40
WSpd 5 7 7 7 7 5 5 5 5 5 5 5 5 5
WGst -- -- -- -- -- -- -- -- -- -- -- -- -- --
Raw TAF
KSFO 230520Z 2306/2412 28010KT P6SM SKC
  FM230700 34007KT P6SM SKC
  FM231100 04005KT P6SM SKC
  FM232200 29008KT P6SM BKN250
  FM240400 31005KT P6SM SCT250
  FM240700 VRB04KT P6SM FEW250


Raw METAR
KSFO 230556Z 28005KT 10SM CLR 08/03 A3021 RMK AO2 SLP231 T00830028 10122 20083 51018
KSFO 230456Z 27009KT 10SM CLR 09/02 A3020 RMK AO2 SLP226 T00940022
KSFO 230356Z 27010KT 10SM CLR 10/01 A3018 RMK AO2 SLP221 T01000006

METAR Board
Radar Display
Forecast Discussion
For situational awareness. Not to be used for flight planning purposes.